createdAt,value
2023-02-24T03:59:07.257Z,1004.97
2023-02-24T04:00:07.223Z,1004.96
2023-02-24T04:01:07.192Z,1004.98
2023-02-24T04:02:07.311Z,1004.99
2023-02-24T04:03:07.164Z,1004.95
2023-02-24T04:04:07.165Z,1004.98
2023-02-24T04:05:07.158Z,1004.97
2023-02-24T04:06:07.147Z,1004.95
2023-02-24T04:07:07.137Z,1004.95
2023-02-24T04:08:07.153Z,1004.96
2023-02-24T04:09:07.122Z,1004.93
2023-02-24T04:10:07.132Z,1004.94
2023-02-24T04:11:07.116Z,1004.92
2023-02-24T04:12:07.112Z,1004.86
2023-02-24T04:13:07.115Z,1004.88
2023-02-24T04:14:07.109Z,1004.85
2023-02-24T04:15:07.094Z,1004.83
2023-02-24T04:16:07.140Z,1004.81
2023-02-24T04:17:07.102Z,1004.82
2023-02-24T04:18:07.064Z,1004.80
2023-02-24T04:19:07.084Z,1004.82
2023-02-24T04:20:07.068Z,1004.79
2023-02-24T04:21:07.064Z,1004.77
2023-02-24T04:22:07.056Z,1004.79
2023-02-24T04:23:07.041Z,1004.77
2023-02-24T04:24:07.068Z,1004.75
2023-02-24T04:25:07.050Z,1004.75
2023-02-24T04:26:07.030Z,1004.75
2023-02-24T04:27:07.041Z,1004.75
2023-02-24T04:28:07.019Z,1004.71
2023-02-24T04:29:07.022Z,1004.74
2023-02-24T04:30:07.031Z,1004.69
2023-02-24T04:31:07.153Z,1004.70
2023-02-24T04:32:07.245Z,1004.71
2023-02-24T04:33:07.019Z,1004.68
2023-02-24T04:34:07.008Z,1004.64
2023-02-24T04:35:07.007Z,1004.65
2023-02-24T04:36:06.976Z,1004.63
2023-02-24T04:37:06.978Z,1004.61
2023-02-24T04:38:06.975Z,1004.62
2023-02-24T04:39:06.988Z,1004.55
2023-02-24T04:40:06.982Z,1004.53
2023-02-24T04:41:06.965Z,1004.49
2023-02-24T04:42:06.969Z,1004.48
2023-02-24T04:43:06.963Z,1004.46
2023-02-24T04:44:06.982Z,1004.44
2023-02-24T04:45:06.949Z,1004.40
2023-02-24T04:46:07.040Z,1004.45
2023-02-24T04:47:06.950Z,1004.43
2023-02-24T04:48:06.933Z,1004.41
2023-02-24T04:49:06.942Z,1004.39
2023-02-24T04:50:06.956Z,1004.38
2023-02-24T04:51:06.931Z,1004.38
2023-02-24T04:52:06.917Z,1004.39
2023-02-24T04:53:06.962Z,1004.34
2023-02-24T04:54:06.902Z,1004.37
2023-02-24T04:55:06.910Z,1004.35
2023-02-24T04:56:06.890Z,1004.30
2023-02-24T04:57:06.889Z,1004.30
2023-02-24T04:58:06.894Z,1004.28
2023-02-24T04:59:06.895Z,1004.28
2023-02-24T05:00:06.897Z,1004.25
2023-02-24T05:01:06.896Z,1004.24
2023-02-24T05:02:06.873Z,1004.22
2023-02-24T05:03:06.882Z,1004.21
2023-02-24T05:04:07.064Z,1004.15
2023-02-24T05:05:06.849Z,1004.12
2023-02-24T05:06:06.863Z,1004.09
2023-02-24T05:07:06.855Z,1004.06
2023-02-24T05:08:06.843Z,1004.00
2023-02-24T05:09:06.840Z,1003.99
2023-02-24T05:10:06.836Z,1003.92
2023-02-24T05:11:06.834Z,1003.93
2023-02-24T05:12:06.836Z,1003.89
2023-02-24T05:13:06.810Z,1003.85
2023-02-24T05:14:06.809Z,1003.89
2023-02-24T05:15:06.806Z,1003.80
2023-02-24T05:16:06.868Z,1003.77
2023-02-24T05:17:06.810Z,1003.73
2023-02-24T05:18:06.801Z,1003.72
2023-02-24T05:19:06.839Z,1003.71
2023-02-24T05:20:06.797Z,1003.69
2023-02-24T05:21:06.803Z,1003.68
2023-02-24T05:22:06.781Z,1003.64
2023-02-24T05:23:06.778Z,1003.60
2023-02-24T05:24:07.313Z,1003.59
2023-02-24T05:25:06.770Z,1003.55
2023-02-24T05:26:06.792Z,1003.57
2023-02-24T05:27:06.758Z,1003.53
2023-02-24T05:28:06.748Z,1003.50
2023-02-24T05:29:06.754Z,1003.46
2023-02-24T05:30:06.758Z,1003.43
2023-02-24T05:31:06.932Z,1003.43
2023-02-24T05:32:06.854Z,1003.41
2023-02-24T05:33:06.736Z,1003.42
2023-02-24T05:34:06.767Z,1003.36
2023-02-24T05:35:06.742Z,1003.36
2023-02-24T05:37:06.734Z,1003.29
2023-02-24T05:38:06.748Z,1003.33
2023-02-24T05:39:06.724Z,1003.32
2023-02-24T05:40:06.712Z,1003.27
2023-02-24T05:41:06.690Z,1003.25
2023-02-24T05:42:06.741Z,1003.25
2023-02-24T05:43:06.698Z,1003.22
2023-02-24T05:44:06.706Z,1003.21
2023-02-24T05:45:06.682Z,1003.18
2023-02-24T05:46:06.666Z,1003.15
2023-02-24T05:47:06.711Z,1003.18
2023-02-24T05:48:06.668Z,1003.14
2023-02-24T05:49:06.705Z,1003.16
2023-02-24T05:50:06.650Z,1003.12
2023-02-24T05:51:06.672Z,1003.07
2023-02-24T05:52:06.671Z,1003.07
2023-02-24T05:53:06.641Z,1003.03
2023-02-24T05:54:06.663Z,1003.07
2023-02-24T05:55:06.661Z,1003.01
2023-02-24T05:56:06.658Z,1002.99
2023-02-24T05:57:06.621Z,1002.97
2023-02-24T05:58:06.622Z,1002.97
2023-02-24T05:59:06.643Z,1002.91
2023-02-24T06:00:06.607Z,1002.88
2023-02-24T06:01:06.612Z,1002.89
2023-02-24T06:02:06.679Z,1002.86
2023-02-24T06:03:06.626Z,1002.87
2023-02-24T06:04:06.602Z,1002.88
2023-02-24T06:05:06.596Z,1002.88
2023-02-24T06:06:06.570Z,1002.86
2023-02-24T06:07:06.584Z,1002.88
2023-02-24T06:08:06.591Z,1002.85
2023-02-24T06:09:06.591Z,1002.85
2023-02-24T06:10:06.593Z,1002.81
2023-02-24T06:11:06.602Z,1002.81
2023-02-24T06:12:06.586Z,1002.80
2023-02-24T06:13:06.571Z,1002.80
2023-02-24T06:14:06.541Z,1002.79
2023-02-24T06:15:06.536Z,1002.79
2023-02-24T06:16:06.633Z,1002.76
2023-02-24T06:17:06.534Z,1002.78
2023-02-24T06:18:06.521Z,1002.72
2023-02-24T06:19:06.523Z,1002.71
2023-02-24T06:20:06.525Z,1002.72
2023-02-24T06:21:06.511Z,1002.69
2023-02-24T06:22:06.826Z,1002.65
2023-02-24T06:23:06.522Z,1002.68
2023-02-24T06:24:06.540Z,1002.63
2023-02-24T06:25:06.490Z,1002.59
2023-02-24T06:26:06.504Z,1002.59
2023-02-24T06:27:06.488Z,1002.56
2023-02-24T06:28:06.490Z,1002.59
2023-02-24T06:29:06.583Z,1002.55
2023-02-24T06:30:06.481Z,1002.50
2023-02-24T06:31:06.473Z,1002.51
2023-02-24T06:32:06.613Z,1002.49
2023-02-24T06:33:06.486Z,1002.45
2023-02-24T06:34:06.462Z,1002.42
2023-02-24T06:35:06.450Z,1002.43
2023-02-24T06:36:06.443Z,1002.41
2023-02-24T06:37:06.458Z,1002.42
2023-02-24T06:38:06.445Z,1002.41
2023-02-24T06:39:06.446Z,1002.41
2023-02-24T06:40:06.430Z,1002.41
2023-02-24T06:41:06.462Z,1002.38
2023-02-24T06:42:06.456Z,1002.38
2023-02-24T06:43:06.420Z,1002.35
2023-02-24T06:44:06.442Z,1002.31
2023-02-24T06:45:07.865Z,1002.29
2023-02-24T06:46:06.642Z,1002.30
2023-02-24T06:47:06.429Z,1002.23
2023-02-24T06:48:06.403Z,1002.25
2023-02-24T06:49:06.385Z,1002.23
2023-02-24T06:50:06.452Z,1002.20
2023-02-24T06:55:12.539Z,1002.18
2023-02-24T06:56:12.509Z,1002.22
2023-02-24T06:57:13.076Z,1002.19
2023-02-24T06:58:12.556Z,1002.20
2023-02-24T06:59:12.552Z,1002.19
2023-02-24T07:00:12.465Z,1002.18
2023-02-24T07:01:12.660Z,1002.14
2023-02-24T07:02:12.478Z,1002.14
2023-02-24T07:03:12.536Z,1002.13
2023-02-24T07:04:12.530Z,1002.12
2023-02-24T07:05:12.501Z,1002.09
2023-02-24T07:06:12.445Z,1002.06
2023-02-24T07:07:12.445Z,1002.07
2023-02-24T07:08:12.487Z,1002.09
2023-02-24T07:09:12.424Z,1002.08
2023-02-24T07:10:12.426Z,1002.05
2023-02-24T07:11:12.411Z,1002.02
2023-02-24T07:12:12.410Z,1002.04
2023-02-24T07:13:12.389Z,1001.98
2023-02-24T07:14:12.533Z,1002.01
2023-02-24T07:15:12.427Z,1001.99
2023-02-24T07:16:12.435Z,1001.98
2023-02-24T07:17:12.393Z,1001.98
2023-02-24T07:18:12.380Z,1001.92
2023-02-24T07:19:12.376Z,1001.94
2023-02-24T07:20:12.381Z,1001.92
2023-02-24T07:21:12.367Z,1001.85
2023-02-24T07:22:12.382Z,1001.86
2023-02-24T07:23:12.360Z,1001.84
2023-02-24T07:24:12.351Z,1001.81
2023-02-24T07:25:12.349Z,1001.77
2023-02-24T07:26:12.367Z,1001.77
2023-02-24T07:27:12.366Z,1001.74
2023-02-24T07:28:12.331Z,1001.73
2023-02-24T07:29:12.406Z,1001.71
2023-02-24T07:30:12.372Z,1001.69
2023-02-24T07:31:12.500Z,1001.65
2023-02-24T07:32:12.441Z,1001.63
2023-02-24T07:33:12.305Z,1001.67
2023-02-24T07:34:12.322Z,1001.60
2023-02-24T07:35:12.311Z,1001.61
2023-02-24T07:36:12.326Z,1001.61
2023-02-24T07:37:13.130Z,1001.66
2023-02-24T07:38:12.313Z,1001.62
2023-02-24T07:39:12.273Z,1001.64
2023-02-24T07:40:12.264Z,1001.59
2023-02-24T07:41:12.291Z,1001.55
2023-02-24T07:42:12.315Z,1001.61
2023-02-24T07:43:12.297Z,1001.59
2023-02-24T07:44:12.274Z,1001.53
2023-02-24T07:45:12.264Z,1001.51
2023-02-24T07:46:12.294Z,1001.55
2023-02-24T07:47:12.326Z,1001.55
2023-02-24T07:48:12.228Z,1001.48
2023-02-24T07:49:12.222Z,1001.52
2023-02-24T07:50:12.283Z,1001.46
2023-02-24T07:51:12.288Z,1001.43
2023-02-24T07:52:12.225Z,1001.46
2023-02-24T07:53:12.222Z,1001.44
2023-02-24T07:54:12.208Z,1001.47
2023-02-24T07:55:12.266Z,1001.44
2023-02-24T07:56:12.195Z,1001.37
2023-02-24T07:57:12.184Z,1001.36
2023-02-24T07:58:12.194Z,1001.39
2023-02-24T07:59:12.214Z,1001.35
2023-02-24T08:00:14.543Z,1001.38
2023-02-24T08:01:12.176Z,1001.31
2023-02-24T08:02:12.219Z,1001.32
2023-02-24T08:03:12.172Z,1001.31
2023-02-24T08:04:12.177Z,1001.30
2023-02-24T08:05:12.188Z,1001.20
2023-02-24T08:06:12.154Z,1001.26
2023-02-24T08:07:12.142Z,1001.16
2023-02-24T08:08:12.190Z,1001.13
2023-02-24T08:09:12.133Z,1001.09
2023-02-24T08:10:12.202Z,1001.10
2023-02-24T08:11:12.136Z,1001.03
2023-02-24T08:12:12.206Z,1001.03
2023-02-24T08:13:12.133Z,1001.05
2023-02-24T08:14:12.235Z,1001.00
2023-02-24T08:15:12.145Z,1001.00
2023-02-24T08:16:12.382Z,1000.95
2023-02-24T08:17:12.108Z,1000.91
2023-02-24T08:18:12.219Z,1000.91
2023-02-24T08:19:12.151Z,1000.91
2023-02-24T08:20:12.289Z,1000.87
2023-02-24T08:21:12.132Z,1000.92
2023-02-24T08:22:12.280Z,1000.91
2023-02-24T08:23:12.132Z,1000.91
2023-02-24T08:24:12.080Z,1000.88
2023-02-24T08:25:12.182Z,1000.88
2023-02-24T08:26:12.114Z,1000.89
2023-02-24T08:27:12.152Z,1000.83
2023-02-24T08:28:12.652Z,1000.85
2023-02-24T08:29:12.197Z,1000.86
2023-02-24T08:30:12.177Z,1000.85
2023-02-24T08:31:12.233Z,1000.79
2023-02-24T08:32:12.403Z,1000.83
2023-02-24T08:33:12.651Z,1000.76
2023-02-24T08:34:16.211Z,1000.79
2023-02-24T08:35:12.119Z,1000.76
2023-02-24T08:36:12.048Z,1000.75
2023-02-24T08:37:12.067Z,1000.70
2023-02-24T08:38:12.030Z,1000.64
2023-02-24T08:39:12.050Z,1000.63
2023-02-24T08:40:12.002Z,1000.63
2023-02-24T08:41:12.021Z,1000.60
2023-02-24T08:42:12.656Z,1000.56
2023-02-24T08:43:12.069Z,1000.56
2023-02-24T08:44:11.978Z,1000.55
2023-02-24T08:45:11.978Z,1000.53
2023-02-24T08:46:12.069Z,1000.56
2023-02-24T08:47:11.979Z,1000.52
2023-02-24T08:48:12.017Z,1000.58
2023-02-24T08:49:11.974Z,1000.47
2023-02-24T08:50:11.957Z,1000.46
2023-02-24T08:51:11.988Z,1000.48
2023-02-24T08:52:11.959Z,1000.47
2023-02-24T08:53:12.050Z,1000.45
2023-02-24T08:54:12.093Z,1000.45
2023-02-24T08:55:11.936Z,1000.42
2023-02-24T08:56:11.963Z,1000.43
2023-02-24T08:58:11.949Z,1000.40
2023-02-24T08:59:11.959Z,1000.34
2023-02-24T09:01:48.465Z,1000.42
2023-02-24T09:02:44.485Z,1000.39
2023-02-24T09:03:44.442Z,1000.38
2023-02-24T09:04:44.513Z,1000.33
2023-02-24T09:05:44.427Z,1000.37
2023-02-24T09:06:44.749Z,1000.34
2023-02-24T09:07:44.430Z,1000.30
2023-02-24T09:08:44.446Z,1000.29
2023-02-24T09:09:44.403Z,1000.32
2023-02-24T09:10:44.396Z,1000.21
2023-02-24T09:11:44.388Z,1000.31
2023-02-24T09:12:44.387Z,1000.23
2023-02-24T09:13:44.404Z,1000.19
2023-02-24T09:14:44.413Z,1000.19
2023-02-24T09:15:44.389Z,1000.19
2023-02-24T09:16:44.433Z,1000.21
2023-02-24T09:17:44.390Z,1000.16
2023-02-24T09:18:44.377Z,1000.12
2023-02-24T09:19:44.404Z,1000.08
2023-02-24T09:20:44.360Z,1000.08
2023-02-24T09:21:44.375Z,1000.06
2023-02-24T09:22:44.361Z,1000.04
2023-02-24T09:23:44.395Z,1000.05
2023-02-24T09:24:44.346Z,1000.00
2023-02-24T09:25:44.326Z,1000.02
2023-02-24T09:26:44.350Z,999.93
2023-02-24T09:27:44.348Z,999.95
2023-02-24T09:28:44.345Z,999.94
2023-02-24T09:29:44.316Z,999.93
2023-02-24T09:30:44.326Z,999.96
2023-02-24T09:31:44.497Z,999.90
2023-02-24T09:32:44.557Z,999.88
2023-02-24T09:33:44.303Z,999.88
2023-02-24T09:34:44.339Z,999.88
2023-02-24T09:35:44.291Z,999.86
2023-02-24T09:36:44.303Z,999.84
2023-02-24T09:37:44.276Z,999.83
2023-02-24T09:38:44.271Z,999.88
2023-02-24T09:39:44.286Z,999.79
2023-02-24T09:40:44.277Z,999.75
2023-02-24T09:41:44.278Z,999.81
2023-02-24T09:42:44.339Z,999.72
2023-02-24T09:43:44.276Z,999.70
2023-02-24T09:44:44.313Z,999.70
2023-02-24T09:45:44.376Z,999.71
2023-02-24T09:46:44.276Z,999.65
2023-02-24T09:47:44.235Z,999.64
2023-02-24T09:48:44.249Z,999.66
2023-02-24T09:49:44.308Z,999.59
2023-02-24T09:51:01.467Z,999.60
2023-02-24T09:51:44.249Z,999.61
2023-02-24T09:52:44.217Z,999.58
2023-02-24T09:53:44.226Z,999.56
2023-02-24T09:54:44.216Z,999.55
2023-02-24T09:55:44.242Z,999.56
2023-02-24T09:56:44.205Z,999.51
2023-02-24T09:57:44.254Z,999.47
2023-02-24T09:58:44.433Z,999.47
2023-02-24T09:59:44.196Z,999.44
2023-02-24T10:00:44.458Z,999.46
2023-02-24T10:01:44.196Z,999.39
2023-02-24T10:13:28.827Z,999.16
2023-02-24T10:14:37.817Z,999.15
2023-02-24T10:15:28.831Z,999.14
2023-02-24T10:16:28.814Z,999.10
2023-02-24T10:17:28.838Z,999.05
2023-02-24T10:18:28.765Z,999.09
2023-02-24T10:19:28.795Z,999.06
2023-02-24T10:20:28.792Z,999.00
2023-02-24T10:21:28.742Z,998.99
2023-02-24T10:22:28.723Z,998.93
2023-02-24T10:23:28.747Z,998.92
2023-02-24T10:24:28.727Z,998.91
2023-02-24T10:25:28.716Z,998.88
2023-02-24T10:26:28.726Z,998.89
2023-02-24T10:27:28.912Z,998.84
2023-02-24T10:28:28.744Z,998.84
2023-02-24T10:29:28.714Z,998.84
2023-02-24T10:30:28.746Z,998.76
2023-02-24T10:31:28.974Z,998.78
2023-02-24T10:32:28.884Z,998.77
2023-02-24T10:33:28.679Z,998.78
2023-02-24T10:34:28.669Z,998.72
2023-02-24T10:35:29.600Z,998.66
2023-02-24T10:36:28.680Z,998.67
2023-02-24T10:37:29.726Z,998.70
2023-02-24T10:38:28.736Z,998.69
2023-02-24T10:39:28.655Z,998.69
2023-02-24T10:40:28.714Z,998.66
2023-02-24T10:41:28.668Z,998.65
2023-02-24T10:42:28.677Z,998.60
2023-02-24T10:43:28.670Z,998.65
2023-02-24T10:44:29.331Z,998.61
2023-02-24T10:45:28.691Z,998.57
2023-02-24T10:46:39.996Z,998.60
2023-02-24T10:47:28.638Z,998.54
2023-02-24T10:48:42.427Z,998.50
2023-02-24T10:49:28.644Z,998.53
2023-02-24T10:50:32.004Z,998.55
2023-02-24T10:51:28.679Z,998.52
2023-02-24T10:52:28.597Z,998.53
2023-02-24T10:53:28.599Z,998.52
2023-02-24T10:54:28.597Z,998.51
2023-02-24T10:55:28.618Z,998.44
2023-02-24T10:56:28.598Z,998.48
2023-02-24T10:57:28.589Z,998.40
2023-02-24T10:58:28.591Z,998.49
2023-02-24T10:59:28.583Z,998.44
2023-02-24T11:00:28.564Z,998.41
2023-02-24T11:01:28.653Z,998.41
2023-02-24T11:02:28.602Z,998.34
2023-02-24T11:03:32.951Z,998.38
2023-02-24T11:04:28.550Z,998.41
2023-02-24T11:05:28.566Z,998.40
2023-02-24T11:06:28.600Z,998.31
2023-02-24T11:07:28.530Z,998.35
2023-02-24T11:08:28.529Z,998.30
2023-02-24T11:09:28.547Z,998.27
2023-02-24T11:10:28.521Z,998.19
2023-02-24T11:11:28.514Z,998.10
2023-02-24T11:12:28.502Z,998.09
2023-02-24T11:13:28.501Z,998.12
2023-02-24T11:14:28.522Z,998.08
2023-02-24T11:15:28.552Z,998.05
2023-02-24T11:16:28.542Z,998.02
2023-02-24T11:17:28.551Z,998.02
2023-02-24T11:18:28.472Z,998.00
2023-02-24T11:19:28.475Z,997.98
2023-02-24T11:20:39.177Z,998.00
2023-02-24T11:21:28.570Z,997.88
2023-02-24T11:22:28.457Z,997.92
2023-02-24T11:23:28.466Z,997.86
2023-02-24T11:24:28.465Z,997.88
2023-02-24T11:25:28.464Z,997.89
2023-02-24T11:26:28.444Z,997.79
2023-02-24T11:27:28.443Z,997.82
2023-02-24T11:28:28.450Z,997.75
2023-02-24T11:29:28.447Z,997.76
2023-02-24T11:30:28.445Z,997.81
2023-02-24T11:31:28.693Z,997.76
2023-02-24T11:33:28.453Z,997.61
2023-02-24T11:34:29.091Z,997.62
2023-02-24T11:35:28.427Z,997.60
2023-02-24T11:36:28.411Z,997.57
2023-02-24T11:37:28.430Z,997.49
2023-02-24T11:38:28.398Z,997.51
2023-02-24T11:39:28.404Z,997.52
2023-02-24T11:40:28.415Z,997.52
2023-02-24T11:41:28.429Z,997.46
2023-02-24T11:42:28.431Z,997.46
2023-02-24T11:43:28.409Z,997.42
2023-02-24T11:44:28.377Z,997.44
2023-02-24T11:45:28.375Z,997.41
2023-02-24T11:46:28.445Z,997.35
2023-02-24T11:47:28.359Z,997.40
2023-02-24T11:48:28.357Z,997.44
2023-02-24T11:49:28.370Z,997.35
2023-02-24T11:50:28.354Z,997.43
2023-02-24T11:51:28.354Z,997.41
2023-02-24T11:52:28.433Z,997.43
2023-02-24T11:53:28.336Z,997.33
2023-02-24T11:54:28.355Z,997.37
2023-02-24T11:55:28.358Z,997.39
2023-02-24T11:56:28.382Z,997.38
2023-02-24T11:57:28.418Z,997.34
2023-02-24T11:58:28.853Z,997.33
2023-02-24T11:59:28.337Z,997.28
2023-02-24T12:00:28.910Z,997.30
2023-02-24T12:01:28.292Z,997.30
2023-02-24T12:02:28.347Z,997.31
2023-02-24T12:03:28.383Z,997.31
2023-02-24T12:04:28.402Z,997.38
2023-02-24T12:05:28.369Z,997.26
2023-02-24T12:06:28.812Z,997.29
2023-02-24T12:10:15.636Z,997.30
2023-02-24T12:11:01.321Z,997.27
2023-02-24T12:12:01.318Z,997.19
2023-02-24T12:13:01.381Z,997.14
2023-02-24T12:14:01.413Z,997.13
2023-02-24T12:15:01.324Z,997.09
2023-02-24T12:16:01.314Z,997.07
2023-02-24T12:17:01.449Z,997.09
2023-02-24T12:18:01.288Z,997.07
2023-02-24T12:19:01.328Z,997.08
2023-02-24T12:20:01.289Z,997.05
2023-02-24T12:21:01.294Z,997.06
2023-02-24T12:22:01.284Z,997.10
2023-02-24T12:23:01.270Z,997.06
2023-02-24T12:24:01.275Z,997.01
2023-02-24T12:25:01.277Z,996.96
2023-02-24T12:26:01.273Z,996.88
2023-02-24T12:27:01.245Z,996.86
2023-02-24T12:28:01.237Z,996.87
2023-02-24T12:29:01.354Z,996.81
2023-02-24T12:30:01.242Z,996.86
2023-02-24T12:31:01.439Z,996.84
2023-02-24T12:32:01.493Z,996.85
2023-02-24T12:33:01.354Z,996.84
2023-02-24T12:34:01.235Z,996.82
2023-02-24T12:35:01.250Z,996.79
2023-02-24T12:36:01.206Z,996.82
2023-02-24T12:37:01.218Z,996.69
2023-02-24T12:38:01.194Z,996.68
2023-02-24T12:39:01.197Z,996.74
2023-02-24T12:40:01.205Z,996.72
2023-02-24T12:41:01.188Z,996.68
2023-02-24T12:42:01.212Z,996.67
2023-02-24T12:43:01.178Z,996.72
2023-02-24T12:44:01.185Z,996.68
2023-02-24T12:45:01.183Z,996.64
2023-02-24T12:46:01.236Z,996.67
2023-02-24T12:47:01.153Z,996.61
2023-02-24T12:48:01.152Z,996.51
2023-02-24T12:49:01.176Z,996.50
2023-02-24T12:50:01.139Z,996.42
2023-02-24T12:51:01.130Z,996.42
2023-02-24T12:52:01.170Z,996.39
2023-02-24T12:53:01.145Z,996.40
2023-02-24T12:54:01.143Z,996.44
2023-02-24T12:55:01.123Z,996.44
2023-02-24T12:56:01.113Z,996.45
2023-02-24T12:57:01.107Z,996.47
2023-02-24T12:58:01.111Z,996.46
2023-02-24T12:59:01.250Z,996.45
2023-02-24T13:00:01.109Z,996.48
2023-02-24T13:01:01.154Z,996.45
2023-02-24T13:02:01.161Z,996.46
2023-02-24T13:03:01.107Z,996.44
2023-02-24T13:04:01.089Z,996.39
2023-02-24T13:05:01.089Z,996.38
2023-02-24T13:06:01.101Z,996.39
2023-02-24T13:07:01.117Z,996.34
2023-02-24T13:08:01.072Z,996.32
2023-02-24T13:09:01.117Z,996.30
2023-02-24T13:10:01.082Z,996.23
2023-02-24T13:11:01.125Z,996.20
2023-02-24T13:12:01.060Z,996.17
2023-02-24T13:13:01.063Z,996.21
2023-02-24T13:14:01.069Z,996.18
2023-02-24T13:15:01.042Z,996.16
2023-02-24T13:16:01.037Z,996.17
2023-02-24T13:17:01.157Z,996.13
2023-02-24T13:18:01.066Z,996.06
2023-02-24T13:19:01.061Z,996.08
2023-02-24T13:20:01.033Z,996.03
2023-02-24T13:21:01.039Z,995.99
2023-02-24T13:22:01.025Z,996.06
2023-02-24T13:23:01.057Z,995.97
2023-02-24T13:24:01.024Z,995.95
2023-02-24T13:25:01.047Z,995.94
2023-02-24T13:26:01.024Z,995.94
2023-02-24T13:27:01.017Z,995.95
2023-02-24T13:28:01.043Z,995.94
2023-02-24T13:29:01.010Z,995.91
2023-02-24T13:30:01.163Z,995.89
2023-02-24T13:31:01.055Z,995.88
2023-02-24T13:32:01.096Z,995.80
2023-02-24T13:33:00.995Z,995.82
2023-02-24T13:34:00.968Z,995.80
2023-02-24T13:35:00.978Z,995.79
2023-02-24T13:36:00.961Z,995.76
2023-02-24T13:37:00.960Z,995.73
2023-02-24T13:38:01.002Z,995.70
2023-02-24T13:39:00.973Z,995.69
2023-02-24T13:40:00.950Z,995.71
2023-02-24T13:41:00.966Z,995.68
2023-02-24T13:42:00.950Z,995.65
2023-02-24T13:43:01.027Z,995.66
2023-02-24T13:44:00.976Z,995.61
2023-02-24T13:45:00.939Z,995.64
2023-02-24T13:46:00.986Z,995.61
2023-02-24T13:47:00.923Z,995.56
2023-02-24T13:48:01.800Z,995.58
2023-02-24T13:49:00.939Z,995.57
2023-02-24T13:50:00.942Z,995.58
2023-02-24T13:51:00.931Z,995.55
2023-02-24T13:52:00.906Z,995.54
2023-02-24T13:53:00.919Z,995.50
2023-02-24T13:54:00.898Z,995.56
2023-02-24T13:55:00.916Z,995.51
2023-02-24T13:56:00.904Z,995.50
2023-02-24T13:57:00.907Z,995.51
2023-02-24T13:58:00.897Z,995.47
2023-02-24T13:59:00.918Z,995.46
2023-02-24T14:00:00.900Z,995.47
2023-02-24T14:01:00.920Z,995.38
2023-02-24T14:02:00.891Z,995.38
2023-02-24T14:03:00.880Z,995.37
2023-02-24T14:04:00.886Z,995.39
2023-02-24T14:05:00.874Z,995.38
2023-02-24T14:06:00.871Z,995.37
2023-02-24T14:07:00.876Z,995.29
2023-02-24T14:08:00.852Z,995.30
2023-02-24T14:09:00.877Z,995.27
2023-02-24T14:10:00.880Z,995.27
2023-02-24T14:11:00.836Z,995.28
2023-02-24T14:12:00.833Z,995.30
2023-02-24T14:13:00.846Z,995.23
2023-02-24T14:14:00.850Z,995.17
2023-02-24T14:15:00.849Z,995.14
2023-02-24T14:16:00.892Z,995.10
2023-02-24T14:17:00.812Z,995.13
2023-02-24T14:18:00.824Z,995.09
2023-02-24T14:19:00.840Z,995.17
2023-02-24T14:20:00.828Z,995.21
2023-02-24T14:21:00.794Z,995.19
2023-02-24T14:22:00.798Z,995.20
2023-02-24T14:23:00.836Z,995.20
2023-02-24T14:24:00.797Z,995.19
2023-02-24T14:25:00.797Z,995.14
2023-02-24T14:26:00.785Z,995.14
2023-02-24T14:27:00.779Z,995.12
2023-02-24T14:28:00.792Z,995.13
2023-02-24T14:29:00.803Z,995.10
2023-02-24T14:30:00.803Z,995.12
2023-02-24T14:31:00.840Z,995.14
2023-02-24T14:32:00.968Z,995.11
2023-02-24T14:33:00.768Z,995.11
2023-02-24T14:34:00.754Z,995.13
2023-02-24T14:35:00.760Z,995.11
2023-02-24T14:36:00.763Z,995.06
2023-02-24T14:37:00.751Z,995.09
2023-02-24T14:38:02.313Z,995.06
2023-02-24T14:39:00.747Z,995.01
2023-02-24T14:40:00.729Z,995.00
2023-02-24T14:41:00.726Z,995.02
2023-02-24T14:42:00.723Z,995.04
2023-02-24T14:43:00.736Z,994.98
2023-02-24T14:44:00.718Z,994.97
2023-02-24T14:45:00.731Z,994.96
2023-02-24T14:46:00.712Z,994.99
2023-02-24T14:47:00.699Z,995.02
2023-02-24T14:48:00.710Z,994.97
2023-02-24T14:49:00.716Z,995.02
2023-02-24T14:50:00.692Z,994.97
2023-02-24T14:51:00.681Z,994.97
2023-02-24T14:52:00.695Z,995.03
2023-02-24T14:53:00.671Z,995.05
2023-02-24T14:54:00.701Z,995.06
2023-02-24T14:55:00.675Z,995.07
2023-02-24T14:56:00.673Z,995.08
2023-02-24T14:57:00.661Z,995.01
2023-02-24T14:58:00.673Z,995.03
2023-02-24T14:59:00.688Z,995.04
2023-02-24T15:00:00.641Z,995.07
2023-02-24T15:01:00.662Z,995.04
2023-02-24T15:02:00.697Z,995.03
2023-02-24T15:03:00.731Z,995.01
2023-02-24T15:04:00.631Z,994.98
2023-02-24T15:05:00.636Z,995.00
2023-02-24T15:06:00.624Z,995.00
2023-02-24T15:07:00.635Z,994.92
2023-02-24T15:08:00.675Z,994.97
2023-02-24T15:09:00.709Z,994.91
2023-02-24T15:10:00.610Z,994.88
2023-02-24T15:11:00.605Z,994.90
2023-02-24T15:12:00.614Z,994.83
2023-02-24T15:13:01.156Z,994.80
2023-02-24T15:14:00.610Z,994.73
2023-02-24T15:15:00.585Z,994.68
2023-02-24T15:16:00.602Z,994.66
2023-02-24T15:17:00.614Z,994.68
2023-02-24T15:18:00.594Z,994.60
2023-02-24T15:19:01.574Z,994.58
2023-02-24T15:20:00.581Z,994.52
2023-02-24T15:21:00.587Z,994.54
2023-02-24T15:22:00.564Z,994.55
2023-02-24T15:23:00.545Z,994.54
2023-02-24T15:24:00.542Z,994.50
2023-02-24T15:25:00.542Z,994.52
2023-02-24T15:26:00.547Z,994.48
2023-02-24T15:27:00.540Z,994.52
2023-02-24T15:28:00.524Z,994.50
2023-02-24T15:29:00.515Z,994.54
2023-02-24T15:30:00.531Z,994.53
2023-02-24T15:31:00.682Z,994.53
2023-02-24T15:32:00.655Z,994.56
2023-02-24T15:33:00.583Z,994.50
2023-02-24T15:34:00.558Z,994.50
2023-02-24T15:35:00.523Z,994.51
2023-02-24T15:36:00.514Z,994.51
2023-02-24T15:37:00.497Z,994.46
2023-02-24T15:38:00.499Z,994.44
2023-02-24T15:39:00.477Z,994.45
2023-02-24T15:40:00.515Z,994.43
2023-02-24T15:41:00.492Z,994.39
2023-02-24T15:42:00.470Z,994.38
2023-02-24T15:43:00.483Z,994.36
2023-02-24T15:44:00.462Z,994.36
2023-02-24T15:45:00.510Z,994.31
2023-02-24T15:46:00.464Z,994.31
2023-02-24T15:47:05.203Z,994.28
2023-02-24T15:48:00.452Z,994.23
2023-02-24T15:49:00.499Z,994.23
2023-02-24T15:50:00.490Z,994.23
2023-02-24T15:51:00.447Z,994.27
2023-02-24T15:52:00.431Z,994.24
2023-02-24T15:53:00.425Z,994.23
2023-02-24T15:54:01.242Z,994.25
2023-02-24T15:55:00.483Z,994.27
2023-02-24T15:56:00.449Z,994.20
2023-02-24T15:57:00.478Z,994.20
2023-02-24T15:58:00.424Z,994.21
2023-02-24T15:59:00.410Z,994.17
2023-02-24T16:00:00.418Z,994.16
2023-02-24T16:01:00.478Z,994.20
2023-02-24T16:12:37.759Z,994.08
2023-02-24T16:13:37.737Z,994.11
2023-02-24T16:14:37.720Z,994.09
2023-02-24T16:15:37.717Z,994.07
2023-02-24T16:16:37.833Z,994.07
2023-02-24T16:17:37.715Z,994.07
2023-02-24T16:18:37.697Z,994.08
2023-02-24T16:19:37.684Z,994.03
2023-02-24T16:20:37.676Z,994.04
2023-02-24T16:21:37.672Z,994.02
2023-02-24T16:22:37.672Z,993.98
2023-02-24T16:23:37.677Z,994.04
2023-02-24T16:24:37.672Z,994.04
2023-02-24T16:25:37.652Z,994.04
2023-02-24T16:26:37.650Z,994.05
2023-02-24T16:27:37.660Z,994.08
2023-02-24T16:28:37.698Z,994.09
2023-02-24T16:29:37.643Z,994.14
2023-02-24T16:30:37.780Z,994.20
2023-02-24T16:31:37.920Z,994.26
2023-02-24T16:32:37.751Z,994.26
2023-02-24T16:33:53.305Z,994.29
2023-02-24T16:34:37.638Z,994.27
2023-02-24T16:35:37.603Z,994.25
2023-02-24T16:36:37.611Z,994.31
2023-02-24T16:37:37.608Z,994.22
2023-02-24T16:38:37.618Z,994.32
2023-02-24T16:39:37.600Z,994.31
2023-02-24T16:40:37.588Z,994.39
2023-02-24T16:41:37.578Z,994.42
2023-02-24T16:42:37.594Z,994.43
2023-02-24T16:43:37.598Z,994.37
2023-02-24T16:44:37.584Z,994.40
2023-02-24T16:45:37.639Z,994.41
2023-02-24T16:46:37.583Z,994.38
2023-02-24T16:47:37.574Z,994.37
2023-02-24T16:48:37.569Z,994.34
2023-02-24T16:49:37.557Z,994.38